createdAt,value
2019-03-08T00:01:33.505Z,9.60
2019-03-08T00:03:09.529Z,9.60
2019-03-08T00:04:44.269Z,9.60
2019-03-08T00:06:19.161Z,9.60
2019-03-08T00:07:54.147Z,9.60
2019-03-08T00:09:28.963Z,9.60
2019-03-08T00:11:03.906Z,9.60
2019-03-08T00:12:38.687Z,9.60
2019-03-08T00:14:13.477Z,9.60
2019-03-08T00:15:48.442Z,9.60
2019-03-08T00:17:23.420Z,9.70
2019-03-08T00:18:58.185Z,9.70
2019-03-08T00:20:32.997Z,9.80
2019-03-08T00:22:09.110Z,9.70
2019-03-08T00:23:43.897Z,9.70
2019-03-08T00:25:18.758Z,9.60
2019-03-08T00:26:53.641Z,9.70
2019-03-08T00:28:28.521Z,9.70
2019-03-08T00:30:03.673Z,9.70
2019-03-08T00:31:38.520Z,9.70
2019-03-08T00:33:13.469Z,9.70
2019-03-08T00:34:48.266Z,9.70
2019-03-08T00:36:23.245Z,9.70
2019-03-08T00:37:58.059Z,9.70
2019-03-08T00:39:32.829Z,9.70
2019-03-08T00:41:07.762Z,9.70
2019-03-08T00:42:42.833Z,9.70
2019-03-08T00:44:17.626Z,9.70
2019-03-08T00:45:52.490Z,9.70
2019-03-08T00:47:27.447Z,9.70
2019-03-08T00:49:02.509Z,9.70
2019-03-08T00:50:37.473Z,9.60
2019-03-08T00:52:12.293Z,9.60
2019-03-08T00:53:47.081Z,9.60
2019-03-08T00:55:21.989Z,9.60
2019-03-08T00:56:56.779Z,9.60
2019-03-08T00:58:31.579Z,9.50
2019-03-08T01:00:10.627Z,9.50
2019-03-08T01:01:45.562Z,9.50
2019-03-08T01:03:20.355Z,9.50
2019-03-08T01:04:55.425Z,9.50
2019-03-08T01:06:30.333Z,9.50
2019-03-08T01:08:05.373Z,9.50
2019-03-08T01:09:41.221Z,9.50
2019-03-08T01:11:16.747Z,9.50
2019-03-08T01:12:51.674Z,9.50
2019-03-08T01:14:26.550Z,9.50
2019-03-08T01:16:01.366Z,9.50
2019-03-08T01:17:36.260Z,9.40
2019-03-08T01:19:11.157Z,9.40
2019-03-08T01:20:47.634Z,9.40
2019-03-08T01:22:22.452Z,9.30
2019-03-08T01:23:57.257Z,9.40
2019-03-08T01:25:32.323Z,9.30
2019-03-08T01:27:07.174Z,9.40
2019-03-08T01:28:41.946Z,9.30
2019-03-08T01:30:16.826Z,9.30
2019-03-08T01:31:53.410Z,9.40
2019-03-08T01:33:28.142Z,9.40
2019-03-08T01:35:02.977Z,9.40
2019-03-08T01:36:37.767Z,9.50
2019-03-08T01:38:13.622Z,9.50
2019-03-08T01:39:48.541Z,9.60
2019-03-08T01:41:23.361Z,9.50
2019-03-08T01:42:58.342Z,9.50
2019-03-08T01:44:33.892Z,9.50
2019-03-08T01:46:09.130Z,9.50
2019-03-08T01:47:43.915Z,9.40
2019-03-08T01:49:18.737Z,9.40
2019-03-08T01:50:53.673Z,9.50
2019-03-08T01:52:28.549Z,9.50
2019-03-08T01:54:03.473Z,9.50
2019-03-08T01:55:39.358Z,9.50
2019-03-08T01:57:14.267Z,9.50
2019-03-08T01:58:49.077Z,9.50
2019-03-08T02:00:23.847Z,9.50
2019-03-08T02:01:58.719Z,9.50
2019-03-08T02:03:33.557Z,9.50
2019-03-08T02:05:08.537Z,9.60
2019-03-08T02:06:43.650Z,9.60
2019-03-08T02:08:18.443Z,9.60
2019-03-08T02:09:53.330Z,9.50
2019-03-08T02:11:28.141Z,9.50
2019-03-08T02:13:03.037Z,9.50
2019-03-08T02:14:38.203Z,9.60
2019-03-08T02:16:13.075Z,9.60
2019-03-08T02:17:48.208Z,9.50
2019-03-08T02:19:23.018Z,9.50
2019-03-08T02:21:06.814Z,9.50
2019-03-08T02:22:35.217Z,9.60
2019-03-08T02:24:09.943Z,9.60
2019-03-08T02:25:45.719Z,9.60
2019-03-08T02:27:20.646Z,9.60
2019-03-08T02:28:55.518Z,9.50
2019-03-08T02:30:30.307Z,9.50
2019-03-08T02:32:05.095Z,9.60
2019-03-08T02:33:39.910Z,9.60
2019-03-08T02:35:17.497Z,9.60
2019-03-08T02:36:52.294Z,9.50
2019-03-08T02:38:27.326Z,9.50
2019-03-08T02:40:02.053Z,9.60
2019-03-08T02:41:37.470Z,9.60
2019-03-08T02:43:17.219Z,9.50
2019-03-08T02:44:51.966Z,9.60
2019-03-08T02:46:26.772Z,9.60
2019-03-08T02:48:01.623Z,9.60
2019-03-08T02:49:36.497Z,9.60
2019-03-08T02:51:11.549Z,9.60
2019-03-08T02:52:46.354Z,9.50
2019-03-08T02:54:21.062Z,9.60
2019-03-08T02:55:56.837Z,9.60
2019-03-08T02:57:31.643Z,9.70
2019-03-08T02:59:06.453Z,9.60
2019-03-08T03:00:45.246Z,9.60
2019-03-08T03:02:20.134Z,9.60
2019-03-08T03:03:54.925Z,9.60
2019-03-08T03:05:29.779Z,9.60
2019-03-08T03:07:04.675Z,9.60
2019-03-08T03:08:39.455Z,9.60
2019-03-08T03:10:14.478Z,9.60
2019-03-08T03:11:49.321Z,9.60
2019-03-08T03:13:24.085Z,9.50
2019-03-08T03:14:58.878Z,9.50
2019-03-08T03:16:33.679Z,9.50
2019-03-08T03:18:08.457Z,9.40
2019-03-08T03:19:43.445Z,9.40
2019-03-08T03:21:18.234Z,9.20
2019-03-08T03:22:53.154Z,9.30
2019-03-08T03:24:27.962Z,9.40
2019-03-08T03:26:02.762Z,9.30
2019-03-08T03:27:37.533Z,9.20
2019-03-08T03:29:13.397Z,9.10
2019-03-08T03:30:48.646Z,9.20
2019-03-08T03:32:23.408Z,9.10
2019-03-08T03:33:58.206Z,9.10
2019-03-08T03:35:32.994Z,9.10
2019-03-08T03:37:07.801Z,9.10
2019-03-08T03:38:42.590Z,9.00
2019-03-08T03:40:17.761Z,8.90
2019-03-08T03:41:52.522Z,9.00
2019-03-08T03:43:27.460Z,9.00
2019-03-08T03:45:02.231Z,9.00
2019-03-08T03:46:37.050Z,8.90
2019-03-08T03:48:11.825Z,9.00
2019-03-08T03:49:46.602Z,8.90
2019-03-08T03:51:21.440Z,8.90
2019-03-08T03:52:56.417Z,8.90
2019-03-08T03:54:31.201Z,8.90
2019-03-08T03:56:06.066Z,8.90
2019-03-08T03:57:40.942Z,8.80
2019-03-08T03:59:15.799Z,8.90
2019-03-08T04:00:50.789Z,8.80
2019-03-08T04:02:25.526Z,8.80
2019-03-08T04:04:02.183Z,8.80
2019-03-08T04:05:36.989Z,8.80
2019-03-08T04:07:12.760Z,8.80
2019-03-08T04:08:47.546Z,8.80
2019-03-08T04:10:22.405Z,8.80
2019-03-08T04:11:57.178Z,8.90
2019-03-08T04:13:32.061Z,8.90
2019-03-08T04:15:08.144Z,9.00
2019-03-08T04:16:42.932Z,8.90
2019-03-08T04:18:17.782Z,8.90
2019-03-08T04:19:52.549Z,8.90
2019-03-08T04:21:27.753Z,8.90
2019-03-08T04:23:02.570Z,8.90
2019-03-08T04:24:37.345Z,8.90
2019-03-08T04:26:12.132Z,8.90
2019-03-08T04:27:47.098Z,8.90
2019-03-08T04:29:21.870Z,9.00
2019-03-08T04:30:56.669Z,9.00
2019-03-08T04:32:31.457Z,9.00
2019-03-08T04:34:06.225Z,9.00
2019-03-08T04:35:40.953Z,9.00
2019-03-08T04:37:15.830Z,9.00
2019-03-08T04:38:50.641Z,9.00
2019-03-08T04:40:26.382Z,9.00
2019-03-08T04:42:01.381Z,9.00
2019-03-08T04:43:36.922Z,9.00
2019-03-08T04:45:11.837Z,9.00
2019-03-08T04:46:46.601Z,9.00
2019-03-08T04:48:21.378Z,9.10
2019-03-08T04:49:56.178Z,9.10
2019-03-08T04:51:31.018Z,9.00
2019-03-08T04:53:05.822Z,9.00
2019-03-08T04:54:40.614Z,9.00
2019-03-08T04:56:15.429Z,9.00
2019-03-08T04:57:50.210Z,9.00
2019-03-08T04:59:24.990Z,9.00
2019-03-08T05:00:59.841Z,9.00
2019-03-08T05:02:34.594Z,9.00
2019-03-08T05:04:09.625Z,9.00
2019-03-08T05:05:44.486Z,9.10
2019-03-08T05:07:19.355Z,9.20
2019-03-08T05:08:54.153Z,9.00
2019-03-08T05:10:28.968Z,9.10
2019-03-08T05:12:03.798Z,9.20
2019-03-08T05:13:38.618Z,9.20
2019-03-08T05:15:13.966Z,9.10
2019-03-08T05:16:48.814Z,9.10
2019-03-08T05:18:23.631Z,9.20
2019-03-08T05:19:58.414Z,9.10
2019-03-08T05:21:33.210Z,9.20
2019-03-08T05:23:07.928Z,9.10
2019-03-08T05:24:42.870Z,9.10
2019-03-08T05:26:17.695Z,9.20
2019-03-08T05:27:52.397Z,9.10
2019-03-08T05:29:27.120Z,9.20
2019-03-08T05:31:02.057Z,9.20
2019-03-08T05:32:36.864Z,9.20
2019-03-08T05:34:11.577Z,9.10
2019-03-08T05:35:46.573Z,9.20
2019-03-08T05:37:21.443Z,9.20
2019-03-08T05:38:56.259Z,9.20
2019-03-08T05:40:31.038Z,9.20
2019-03-08T05:42:05.870Z,9.20
2019-03-08T05:43:40.666Z,9.20
2019-03-08T05:45:16.025Z,9.10
2019-03-08T05:46:50.833Z,9.10
2019-03-08T05:48:26.461Z,9.10
2019-03-08T05:50:01.247Z,9.20
2019-03-08T05:51:36.059Z,9.10
2019-03-08T05:53:10.817Z,9.10
2019-03-08T05:54:46.831Z,9.10
2019-03-08T05:56:21.817Z,9.20
2019-03-08T05:57:56.617Z,9.20
2019-03-08T05:59:31.462Z,9.20
2019-03-08T06:01:06.258Z,9.20
2019-03-08T06:02:41.098Z,9.20
2019-03-08T06:04:15.888Z,9.20
2019-03-08T06:05:50.849Z,9.20
2019-03-08T06:07:25.632Z,9.20
2019-03-08T06:09:00.530Z,9.20
2019-03-08T06:10:37.034Z,9.20
2019-03-08T06:12:11.830Z,9.30
2019-03-08T06:13:46.602Z,9.20
2019-03-08T06:15:21.584Z,9.30
2019-03-08T06:16:56.381Z,9.30
2019-03-08T06:18:31.188Z,9.30
2019-03-08T06:20:06.262Z,9.30
2019-03-08T06:21:41.122Z,9.30
2019-03-08T06:23:15.847Z,9.30
2019-03-08T06:24:51.139Z,9.30
2019-03-08T06:26:25.939Z,9.30
2019-03-08T06:28:01.773Z,9.30
2019-03-08T06:29:36.554Z,9.30
2019-03-08T06:31:11.337Z,9.30
2019-03-08T06:32:46.233Z,9.20
2019-03-08T06:34:21.101Z,9.30
2019-03-08T06:35:56.986Z,9.30
2019-03-08T06:37:31.814Z,9.30
2019-03-08T06:39:07.857Z,9.20
2019-03-08T06:40:42.673Z,9.20
2019-03-08T06:42:17.668Z,9.30
2019-03-08T06:43:52.433Z,9.20
2019-03-08T06:45:27.176Z,9.20
2019-03-08T06:47:02.326Z,9.20
2019-03-08T06:48:37.109Z,9.20
2019-03-08T06:50:12.308Z,9.20
2019-03-08T06:51:47.086Z,9.10
2019-03-08T06:53:21.901Z,9.00
2019-03-08T06:54:56.829Z,9.00
2019-03-08T06:56:31.661Z,8.90
2019-03-08T06:58:06.460Z,9.00
2019-03-08T06:59:54.363Z,9.00
2019-03-08T07:01:33.411Z,8.90
2019-03-08T07:03:11.065Z,8.90
2019-03-08T07:04:45.866Z,9.00
2019-03-08T07:06:21.010Z,9.00
2019-03-08T07:07:55.806Z,9.10
2019-03-08T07:09:30.593Z,9.10
2019-03-08T07:11:05.401Z,9.10
2019-03-08T07:12:40.293Z,9.20
2019-03-08T07:14:15.074Z,9.10
2019-03-08T07:15:49.845Z,9.20
2019-03-08T07:17:24.664Z,9.20
2019-03-08T07:18:59.683Z,9.30
2019-03-08T07:20:39.386Z,9.30
2019-03-08T07:22:48.383Z,9.20
2019-03-08T07:24:30.445Z,9.30
2019-03-08T07:26:22.739Z,9.20
2019-03-08T07:28:08.442Z,9.30
2019-03-08T07:30:00.819Z,9.30
2019-03-08T07:31:53.398Z,9.30
2019-03-08T07:33:39.386Z,9.20
2019-03-08T07:35:51.828Z,9.20
2019-03-08T07:37:33.661Z,9.30
2019-03-08T07:39:35.620Z,9.40
2019-03-08T07:41:41.790Z,9.40
2019-03-08T07:43:35.853Z,9.30
2019-03-08T07:45:28.418Z,9.20
2019-03-08T07:47:27.489Z,9.40
2019-03-08T07:49:27.421Z,9.30
2019-03-08T07:51:21.458Z,9.30
2019-03-08T07:53:21.251Z,9.30
2019-03-08T07:55:05.442Z,9.20
2019-03-08T07:56:59.518Z,9.10
2019-03-08T07:58:56.806Z,9.10
2019-03-08T08:00:43.209Z,9.10
2019-03-08T08:02:39.957Z,9.10
2019-03-08T08:04:25.183Z,8.90
2019-03-08T08:06:21.833Z,8.90
2019-03-08T08:08:05.363Z,8.90
2019-03-08T08:09:59.412Z,9.00
2019-03-08T08:11:56.901Z,9.00
2019-03-08T08:13:44.598Z,9.00
2019-03-08T08:15:30.177Z,9.00
2019-03-08T08:17:19.346Z,8.90
2019-03-08T08:19:09.597Z,9.00
2019-03-08T08:21:02.130Z,9.10
2019-03-08T08:22:52.838Z,9.00
2019-03-08T08:24:31.657Z,9.20
2019-03-08T08:26:25.554Z,9.30
2019-03-08T08:28:25.890Z,9.40
2019-03-08T08:30:20.741Z,9.40
2019-03-08T08:32:13.326Z,9.50
2019-03-08T08:33:58.722Z,9.30
2019-03-08T08:35:50.853Z,9.40
2019-03-08T08:37:37.582Z,9.50
2019-03-08T08:39:31.150Z,9.40
2019-03-08T08:41:23.882Z,9.50
2019-03-08T08:43:14.897Z,9.40
2019-03-08T08:45:14.677Z,9.30
2019-03-08T08:46:58.070Z,9.30
2019-03-08T08:48:40.646Z,9.40
2019-03-08T08:50:37.414Z,9.50
2019-03-08T08:52:31.384Z,9.50
2019-03-08T08:54:14.040Z,9.50
2019-03-08T08:56:05.875Z,9.50
2019-03-08T08:57:54.549Z,9.60
2019-03-08T08:59:35.355Z,9.80
2019-03-08T09:01:29.317Z,9.80
2019-03-08T09:03:26.235Z,9.90
2019-03-08T09:05:21.061Z,9.70
2019-03-08T09:07:14.002Z,9.80
2019-03-08T09:08:58.796Z,9.80
2019-03-08T09:11:04.633Z,10.00
2019-03-08T09:12:51.842Z,10.00
2019-03-08T09:14:31.289Z,9.90
2019-03-08T09:16:13.978Z,10.10
2019-03-08T09:18:07.971Z,10.20
2019-03-08T09:20:16.893Z,10.40
2019-03-08T09:22:28.989Z,10.70
2019-03-08T09:24:21.687Z,10.50
2019-03-08T09:26:04.933Z,10.40
2019-03-08T09:27:58.836Z,10.50
2019-03-08T09:30:04.985Z,10.60
2019-03-08T09:31:47.810Z,10.70
2019-03-08T09:33:41.706Z,10.50
2019-03-08T09:35:31.085Z,10.50
2019-03-08T09:37:23.726Z,10.60
2019-03-08T09:39:17.646Z,10.40
2019-03-08T09:41:10.470Z,10.40
2019-03-08T09:42:55.619Z,10.50
2019-03-08T09:44:40.269Z,10.50
2019-03-08T09:46:52.425Z,10.50
2019-03-08T09:48:55.349Z,10.40
2019-03-08T09:51:07.282Z,10.30
2019-03-08T09:52:54.922Z,10.40
2019-03-08T09:54:40.031Z,10.10
2019-03-08T09:56:20.582Z,10.20
2019-03-08T09:58:09.438Z,10.00
2019-03-08T09:59:53.274Z,10.00
2019-03-08T10:01:35.665Z,10.00
2019-03-08T10:03:26.372Z,9.80
2019-03-08T10:05:20.212Z,9.40
2019-03-08T10:07:10.618Z,9.10
2019-03-08T10:09:00.679Z,8.70
2019-03-08T10:11:05.450Z,8.50
2019-03-08T10:13:03.358Z,8.40
2019-03-08T10:14:57.253Z,8.30
2019-03-08T10:16:52.119Z,8.30
2019-03-08T10:18:45.985Z,8.00
2019-03-08T10:20:42.842Z,7.90
2019-03-08T10:22:26.905Z,8.00
2019-03-08T10:24:26.009Z,8.20
2019-03-08T10:26:22.724Z,8.40
2019-03-08T10:28:18.763Z,9.00
2019-03-08T10:30:01.177Z,9.40
2019-03-08T10:31:48.037Z,9.80
2019-03-08T10:33:33.728Z,10.00
2019-03-08T10:35:46.481Z,10.20
2019-03-08T10:37:38.894Z,10.90
2019-03-08T10:39:26.914Z,10.80
2019-03-08T10:41:07.184Z,10.80
2019-03-08T10:42:53.342Z,11.30
2019-03-08T10:44:36.866Z,11.60
2019-03-08T10:46:29.794Z,11.80
2019-03-08T10:48:21.533Z,11.90
2019-03-08T10:50:04.890Z,12.00
2019-03-08T10:52:01.948Z,12.20
2019-03-08T10:54:00.920Z,12.00
2019-03-08T10:55:53.247Z,11.60
2019-03-08T10:58:02.277Z,11.80
2019-03-08T10:59:48.158Z,12.20
2019-03-08T11:01:32.061Z,11.90
2019-03-08T11:03:19.172Z,11.90
2019-03-08T11:05:10.202Z,11.70
2019-03-08T11:06:54.441Z,11.70
2019-03-08T11:08:47.569Z,11.40
2019-03-08T11:10:33.350Z,11.80
2019-03-08T11:12:25.969Z,11.90
2019-03-08T11:14:09.026Z,11.60
2019-03-08T11:16:12.309Z,11.60
2019-03-08T11:18:12.842Z,11.60
2019-03-08T11:20:06.713Z,11.90
2019-03-08T11:21:57.190Z,12.00
2019-03-08T11:23:40.841Z,11.90
2019-03-08T11:25:34.743Z,11.60
2019-03-08T11:27:20.873Z,11.70
2019-03-08T11:29:09.743Z,11.50
2019-03-08T11:31:00.624Z,12.10
2019-03-08T11:32:58.495Z,12.40
2019-03-08T11:34:55.361Z,12.10
2019-03-08T11:37:07.743Z,12.10
2019-03-08T11:38:49.297Z,12.20
2019-03-08T11:40:34.270Z,12.20
2019-03-08T11:42:17.481Z,11.90
2019-03-08T11:44:08.157Z,11.70
2019-03-08T11:45:55.595Z,12.00
2019-03-08T11:47:42.521Z,11.90
2019-03-08T11:49:54.574Z,11.90
2019-03-08T11:51:51.354Z,11.90
2019-03-08T11:53:43.772Z,11.80
2019-03-08T11:55:46.479Z,11.90
2019-03-08T11:57:43.216Z,12.00
2019-03-08T11:59:33.869Z,12.00
2019-03-08T12:01:25.462Z,12.10
2019-03-08T12:03:17.697Z,11.70
2019-03-08T12:05:15.941Z,11.60
2019-03-08T12:07:13.425Z,11.60
2019-03-08T12:08:54.607Z,11.50
2019-03-08T12:10:40.106Z,11.50
2019-03-08T12:12:41.414Z,11.40
2019-03-08T12:14:22.180Z,11.40
2019-03-08T12:16:13.074Z,11.50
2019-03-08T12:17:54.755Z,11.20
2019-03-08T12:20:07.061Z,11.10
2019-03-08T12:21:57.609Z,11.10
2019-03-08T12:23:51.493Z,11.20
2019-03-08T12:25:35.668Z,11.00
2019-03-08T12:27:17.053Z,10.70
2019-03-08T12:29:14.044Z,11.00
2019-03-08T12:31:11.041Z,11.00
2019-03-08T12:32:57.022Z,10.90
2019-03-08T12:34:56.623Z,10.90
2019-03-08T12:36:50.701Z,10.90
2019-03-08T12:38:34.026Z,10.90
2019-03-08T12:40:18.209Z,10.90
2019-03-08T12:42:03.865Z,11.20
2019-03-08T12:44:04.694Z,11.30
2019-03-08T12:46:05.125Z,11.40
2019-03-08T12:47:56.877Z,11.50
2019-03-08T12:49:40.538Z,11.60
2019-03-08T12:51:37.307Z,11.80
2019-03-08T12:53:31.177Z,11.80
2019-03-08T12:55:15.582Z,11.80
2019-03-08T12:56:57.274Z,11.70
2019-03-08T12:58:49.906Z,11.70
2019-03-08T13:00:44.102Z,11.80
2019-03-08T13:02:37.965Z,12.00
2019-03-08T13:04:21.083Z,11.90
2019-03-08T13:06:13.750Z,11.90
2019-03-08T13:08:04.713Z,11.80
2019-03-08T13:09:46.795Z,11.60
2019-03-08T13:11:21.605Z,11.70
2019-03-08T13:12:56.722Z,11.50
2019-03-08T13:14:31.574Z,11.60
2019-03-08T13:16:06.581Z,11.30
2019-03-08T13:17:41.391Z,11.50
2019-03-08T13:19:16.277Z,11.60
2019-03-08T13:20:50.986Z,11.90
2019-03-08T13:22:25.787Z,11.80
2019-03-08T13:24:00.717Z,11.80
2019-03-08T13:25:35.682Z,11.70
2019-03-08T13:27:10.620Z,11.70
2019-03-08T13:28:45.703Z,11.60
2019-03-08T13:30:21.513Z,11.70
2019-03-08T13:31:56.301Z,11.80
2019-03-08T13:33:31.109Z,11.80
2019-03-08T13:35:06.422Z,11.80
2019-03-08T13:36:41.317Z,11.80
2019-03-08T13:38:16.120Z,11.80
2019-03-08T13:39:50.995Z,11.70
2019-03-08T13:41:25.777Z,11.50
2019-03-08T13:43:00.650Z,11.30
2019-03-08T13:44:35.526Z,11.10
2019-03-08T13:46:10.500Z,11.30
2019-03-08T13:47:45.277Z,11.30
2019-03-08T13:49:20.351Z,11.30
2019-03-08T13:50:56.387Z,11.30
2019-03-08T13:52:31.174Z,11.30
2019-03-08T13:54:06.100Z,11.30
2019-03-08T13:55:41.046Z,11.50
2019-03-08T13:57:16.133Z,11.70
2019-03-08T13:58:50.849Z,11.90
2019-03-08T14:00:25.671Z,12.00
2019-03-08T14:02:01.949Z,12.00
2019-03-08T14:03:36.839Z,11.90
2019-03-08T14:05:11.750Z,11.70
2019-03-08T14:06:46.693Z,11.80
2019-03-08T14:08:21.549Z,11.40
2019-03-08T14:09:56.291Z,11.30
2019-03-08T14:11:31.164Z,11.10
2019-03-08T14:13:06.038Z,10.90
2019-03-08T14:14:41.125Z,11.00
2019-03-08T14:16:15.918Z,11.00
2019-03-08T14:17:50.695Z,11.00
2019-03-08T14:19:25.566Z,10.80
2019-03-08T14:21:00.382Z,11.00
2019-03-08T14:22:35.173Z,11.10
2019-03-08T14:24:10.130Z,11.10
2019-03-08T14:25:45.006Z,11.10
2019-03-08T14:27:20.030Z,11.10
2019-03-08T14:28:54.834Z,11.20
2019-03-08T14:30:32.169Z,11.20
2019-03-08T14:32:10.270Z,11.20
2019-03-08T14:33:45.063Z,11.10
2019-03-08T14:35:19.837Z,11.10
2019-03-08T14:36:54.621Z,11.00
2019-03-08T14:38:36.542Z,10.90
2019-03-08T14:40:33.973Z,10.90
2019-03-08T14:42:26.698Z,10.90
2019-03-08T14:44:12.062Z,11.00
2019-03-08T14:45:54.082Z,11.10
2019-03-08T14:47:40.385Z,11.00
2019-03-08T14:49:15.302Z,10.80
2019-03-08T14:50:50.030Z,10.80
2019-03-08T14:52:24.891Z,10.80
2019-03-08T14:53:59.763Z,10.70
2019-03-08T14:55:34.812Z,10.70
2019-03-08T14:57:13.137Z,10.60
2019-03-08T14:58:46.052Z,10.70
2019-03-08T15:00:25.213Z,10.70
2019-03-08T15:02:01.265Z,10.70
2019-03-08T15:03:43.415Z,10.60
2019-03-08T15:05:15.496Z,10.60
2019-03-08T15:06:49.170Z,10.70
2019-03-08T15:08:24.059Z,10.70
2019-03-08T15:10:02.330Z,10.70
2019-03-08T15:11:35.481Z,10.60
2019-03-08T15:13:10.210Z,10.70
2019-03-08T15:14:45.114Z,10.70
2019-03-08T15:16:19.913Z,10.70
2019-03-08T15:17:55.362Z,10.80
2019-03-08T15:19:30.211Z,10.80
2019-03-08T15:21:05.085Z,10.80
2019-03-08T15:22:39.837Z,10.80
2019-03-08T15:24:14.696Z,10.70
2019-03-08T15:25:50.523Z,10.70
2019-03-08T15:27:25.418Z,10.70
2019-03-08T15:29:00.157Z,10.90
2019-03-08T15:30:34.989Z,11.00
2019-03-08T15:32:10.042Z,10.80
2019-03-08T15:33:45.020Z,10.80
2019-03-08T15:35:20.178Z,10.90
2019-03-08T15:36:55.109Z,10.90
2019-03-08T15:38:30.656Z,11.00
2019-03-08T15:40:07.418Z,10.90
2019-03-08T15:41:42.518Z,10.80
2019-03-08T15:43:17.375Z,10.70
2019-03-08T15:44:52.505Z,10.60
2019-03-08T15:46:28.133Z,10.50
2019-03-08T15:48:03.078Z,10.10
2019-03-08T15:49:37.957Z,9.90
2019-03-08T15:51:12.955Z,9.70
2019-03-08T15:52:47.874Z,9.40
2019-03-08T15:54:22.659Z,9.40
2019-03-08T15:55:57.613Z,9.40
2019-03-08T15:57:32.454Z,9.30
2019-03-08T15:59:07.314Z,9.30
2019-03-08T16:00:42.279Z,9.20
2019-03-08T16:02:17.187Z,9.10
2019-03-08T16:03:52.175Z,9.20
2019-03-08T16:05:28.324Z,9.30
2019-03-08T16:07:03.399Z,9.40
2019-03-08T16:08:39.819Z,9.40
2019-03-08T16:10:15.945Z,9.30
2019-03-08T16:11:50.987Z,9.30
2019-03-08T16:13:25.870Z,9.20
2019-03-08T16:15:00.594Z,9.20
2019-03-08T16:16:35.485Z,9.20
2019-03-08T16:18:10.585Z,9.10
2019-03-08T16:19:47.053Z,9.00
2019-03-08T16:21:21.799Z,9.10
2019-03-08T16:22:56.989Z,9.00
2019-03-08T16:24:32.685Z,9.00
2019-03-08T16:26:07.616Z,9.00
2019-03-08T16:27:42.757Z,9.00
2019-03-08T16:29:18.499Z,9.10
2019-03-08T16:30:59.296Z,9.00
2019-03-08T16:32:59.052Z,8.70
2019-03-08T16:34:33.833Z,8.70
2019-03-08T16:36:22.129Z,8.60
2019-03-08T16:38:18.319Z,8.60
2019-03-08T16:40:11.985Z,8.50
2019-03-08T16:42:05.789Z,8.50
2019-03-08T16:43:53.006Z,8.50
2019-03-08T16:45:45.497Z,8.40
2019-03-08T16:47:42.613Z,8.50
2019-03-08T16:49:34.677Z,8.40
2019-03-08T16:51:30.300Z,8.50
2019-03-08T16:53:23.346Z,8.40
2019-03-08T16:55:26.150Z,8.20
2019-03-08T16:57:22.572Z,8.10
2019-03-08T16:59:19.297Z,8.10
2019-03-08T17:01:12.691Z,8.00
2019-03-08T17:03:05.538Z,7.80
2019-03-08T17:04:59.350Z,7.80
2019-03-08T17:06:41.742Z,7.70
2019-03-08T17:08:24.670Z,7.60
2019-03-08T17:10:21.490Z,7.50
2019-03-08T17:12:18.126Z,7.40
2019-03-08T17:14:17.961Z,7.40
2019-03-08T17:16:10.318Z,7.30
2019-03-08T17:18:19.322Z,7.20
2019-03-08T17:20:11.935Z,7.20
2019-03-08T17:21:52.029Z,7.10
2019-03-08T17:23:37.079Z,7.00
2019-03-08T17:25:26.225Z,7.00
2019-03-08T17:27:13.580Z,6.90
2019-03-08T17:29:08.140Z,6.90
2019-03-08T17:31:09.573Z,6.80
2019-03-08T17:32:52.501Z,6.80
2019-03-08T17:34:36.302Z,6.80
2019-03-08T17:36:20.948Z,6.80
2019-03-08T17:38:17.629Z,6.70
2019-03-08T17:40:14.562Z,6.70
2019-03-08T17:42:10.676Z,6.70
2019-03-08T17:43:57.890Z,6.70
2019-03-08T17:45:50.686Z,6.70
2019-03-08T17:47:34.074Z,6.60
2019-03-08T17:49:30.905Z,6.60
2019-03-08T17:51:25.058Z,6.60
2019-03-08T17:53:23.126Z,6.60
2019-03-08T17:55:12.409Z,6.60
2019-03-08T17:57:06.237Z,6.60
2019-03-08T17:58:58.953Z,6.60
2019-03-08T18:00:51.801Z,6.60
2019-03-08T18:02:38.566Z,6.60
2019-03-08T18:04:23.504Z,6.50
2019-03-08T18:06:23.754Z,6.50
2019-03-08T18:08:16.672Z,6.50
2019-03-08T18:10:03.781Z,6.50
2019-03-08T18:11:47.077Z,6.60
2019-03-08T18:13:32.168Z,6.60
2019-03-08T18:15:25.025Z,6.60
2019-03-08T18:17:08.829Z,6.50
2019-03-08T18:19:01.474Z,6.50
2019-03-08T18:20:42.045Z,6.60
2019-03-08T18:22:38.385Z,6.60
2019-03-08T18:24:24.474Z,6.60
2019-03-08T18:26:06.268Z,6.50
2019-03-08T18:27:52.861Z,6.50
2019-03-08T18:29:50.509Z,6.50
2019-03-08T18:31:44.411Z,6.60
2019-03-08T18:33:27.181Z,6.50
2019-03-08T18:35:36.221Z,6.60
2019-03-08T18:37:36.006Z,6.60
2019-03-08T18:39:20.401Z,6.60
2019-03-08T18:41:07.581Z,6.60
2019-03-08T18:42:58.366Z,6.50
2019-03-08T18:44:51.101Z,6.50
2019-03-08T18:46:44.997Z,6.50
2019-03-08T18:48:28.740Z,6.60
2019-03-08T18:50:16.058Z,6.60
2019-03-08T18:52:09.394Z,6.60
2019-03-08T18:53:53.305Z,6.60
2019-03-08T18:55:39.393Z,6.60
2019-03-08T18:57:39.366Z,6.60
2019-03-08T18:59:36.022Z,6.70
2019-03-08T19:01:28.809Z,6.70
2019-03-08T19:03:31.564Z,6.70
2019-03-08T19:05:19.288Z,6.70
2019-03-08T19:07:19.265Z,6.80
2019-03-08T19:09:06.628Z,6.90
2019-03-08T19:11:13.913Z,6.90
2019-03-08T19:12:57.652Z,7.00
2019-03-08T19:14:40.264Z,7.00
2019-03-08T19:16:30.628Z,7.10
2019-03-08T19:18:12.957Z,7.10
2019-03-08T19:20:05.038Z,7.10
2019-03-08T19:21:58.921Z,7.10
2019-03-08T19:23:38.473Z,7.20
2019-03-08T19:25:31.606Z,7.20
2019-03-08T19:27:31.146Z,7.20
2019-03-08T19:29:19.099Z,7.30
2019-03-08T19:31:13.075Z,7.30
2019-03-08T19:33:09.937Z,7.30
2019-03-08T19:35:06.622Z,7.40
2019-03-08T19:37:15.946Z,7.30
2019-03-08T19:39:12.544Z,7.30
2019-03-08T19:41:05.258Z,7.40
2019-03-08T19:43:01.783Z,7.30
2019-03-08T19:44:54.430Z,7.40
2019-03-08T19:46:48.479Z,7.40
2019-03-08T19:48:32.071Z,7.40
2019-03-08T19:50:42.186Z,7.50
2019-03-08T19:52:35.283Z,7.40
2019-03-08T19:54:41.209Z,7.50
2019-03-08T19:56:30.336Z,7.40
2019-03-08T19:58:27.145Z,7.40
2019-03-08T20:00:31.029Z,7.40
2019-03-08T20:02:12.359Z,7.50
2019-03-08T20:04:04.822Z,7.50
2019-03-08T20:05:58.394Z,7.50
2019-03-08T20:07:41.970Z,7.60
2019-03-08T20:09:44.582Z,7.60
2019-03-08T20:11:34.241Z,7.60
2019-03-08T20:13:27.139Z,7.60
2019-03-08T20:15:10.610Z,7.60
2019-03-08T20:17:12.983Z,7.60
2019-03-08T20:19:19.089Z,7.60
2019-03-08T20:21:13.181Z,7.60
2019-03-08T20:23:07.024Z,7.60
2019-03-08T20:25:03.506Z,7.50
2019-03-08T20:26:56.081Z,7.50
2019-03-08T20:28:45.309Z,7.50
2019-03-08T20:30:52.425Z,7.50
2019-03-08T20:32:49.389Z,7.60
2019-03-08T20:34:34.913Z,7.60
2019-03-08T20:36:20.800Z,7.60
2019-03-08T20:38:13.413Z,7.60
2019-03-08T20:40:04.724Z,7.60
2019-03-08T20:41:59.557Z,7.60
2019-03-08T20:43:45.929Z,7.60
2019-03-08T20:45:29.349Z,7.60
2019-03-08T20:47:08.977Z,7.50
2019-03-08T20:48:43.751Z,7.60
2019-03-08T20:50:18.797Z,7.60
2019-03-08T20:51:53.518Z,7.60
2019-03-08T20:53:28.234Z,7.70
2019-03-08T20:55:03.026Z,7.80
2019-03-08T20:56:37.987Z,7.70
2019-03-08T20:58:13.053Z,7.80
2019-03-08T20:59:47.754Z,7.80
2019-03-08T21:01:22.525Z,7.70
2019-03-08T21:02:57.363Z,7.80
2019-03-08T21:04:33.122Z,7.80
2019-03-08T21:06:08.114Z,7.80
2019-03-08T21:07:42.914Z,7.80
2019-03-08T21:09:17.686Z,7.90
2019-03-08T21:10:52.480Z,7.80
2019-03-08T21:12:27.349Z,7.80
2019-03-08T21:14:02.141Z,7.80
2019-03-08T21:15:36.860Z,7.80
2019-03-08T21:17:11.783Z,7.80
2019-03-08T21:18:46.512Z,7.90
2019-03-08T21:20:21.309Z,7.90
2019-03-08T21:21:56.121Z,7.80
2019-03-08T21:23:30.992Z,7.90
2019-03-08T21:25:07.421Z,7.90
2019-03-08T21:26:42.206Z,7.90
2019-03-08T21:28:16.936Z,7.80
2019-03-08T21:29:51.768Z,7.90
2019-03-08T21:31:26.503Z,7.90
2019-03-08T21:33:01.310Z,7.90
2019-03-08T21:34:36.428Z,7.90
2019-03-08T21:36:11.224Z,7.90
2019-03-08T21:37:46.080Z,7.90
2019-03-08T21:39:21.817Z,7.80
2019-03-08T21:40:56.677Z,7.90
2019-03-08T21:42:31.654Z,7.90
2019-03-08T21:44:06.437Z,7.90
2019-03-08T21:45:41.188Z,8.00
2019-03-08T21:47:15.909Z,8.00
2019-03-08T21:48:50.694Z,8.00
2019-03-08T21:50:27.221Z,8.10
2019-03-08T21:52:01.998Z,8.10
2019-03-08T21:53:36.798Z,8.10
2019-03-08T21:55:11.696Z,8.20
2019-03-08T21:56:46.514Z,8.20
2019-03-08T21:58:21.740Z,8.20
2019-03-08T21:59:56.622Z,8.20
2019-03-08T22:01:31.403Z,8.30
2019-03-08T22:03:06.292Z,8.30
2019-03-08T22:04:47.178Z,8.30
2019-03-08T22:06:22.315Z,8.30
2019-03-08T22:07:57.110Z,8.30
2019-03-08T22:09:42.770Z,8.30
2019-03-08T22:11:21.013Z,8.40
2019-03-08T22:12:55.862Z,8.40
2019-03-08T22:14:30.662Z,8.30
2019-03-08T22:16:05.463Z,8.30
2019-03-08T22:17:40.697Z,8.40
2019-03-08T22:19:15.522Z,8.30
2019-03-08T22:20:50.302Z,8.20
2019-03-08T22:22:25.120Z,8.20
2019-03-08T22:23:59.954Z,8.30
2019-03-08T22:25:34.897Z,8.20
2019-03-08T22:27:09.763Z,8.30
2019-03-08T22:28:44.554Z,8.30